sensor_id;sensor_type;location;lat;lon;timestamp;pressure;altitude;pressure_sealevel;temperature;humidity
31717;BME280;18301;51.076;17.046;2022-11-14T00:04:46;101156.16;;;5.45;90.93
31717;BME280;18301;51.076;17.046;2022-11-14T00:09:48;101162.69;;;5.38;91.76
31717;BME280;18301;51.076;17.046;2022-11-14T00:14:49;101159.31;;;5.32;92.06
31717;BME280;18301;51.076;17.046;2022-11-14T00:19:51;101161.75;;;5.39;92.15
31717;BME280;18301;51.076;17.046;2022-11-14T00:24:53;101160.41;;;5.50;92.42
31717;BME280;18301;51.076;17.046;2022-11-14T00:29:54;101156.47;;;5.37;91.51
31717;BME280;18301;51.076;17.046;2022-11-14T00:34:56;101151.81;;;5.42;91.19
31717;BME280;18301;51.076;17.046;2022-11-14T00:39:57;101166.44;;;5.34;92.74
31717;BME280;18301;51.076;17.046;2022-11-14T00:44:59;101152.94;;;5.37;92.37
31717;BME280;18301;51.076;17.046;2022-11-14T00:50:00;101140.66;;;5.53;92.73
31717;BME280;18301;51.076;17.046;2022-11-14T00:55:02;101155.38;;;5.43;91.73
31717;BME280;18301;51.076;17.046;2022-11-14T01:00:05;101153.31;;;5.27;93.43
31717;BME280;18301;51.076;17.046;2022-11-14T01:05:07;101134.81;;;5.21;93.33
31717;BME280;18301;51.076;17.046;2022-11-14T01:10:08;101132.31;;;5.39;92.44
31717;BME280;18301;51.076;17.046;2022-11-14T01:15:10;101124.38;;;5.37;92.61
31717;BME280;18301;51.076;17.046;2022-11-14T01:20:11;101117.91;;;5.43;92.46
31717;BME280;18301;51.076;17.046;2022-11-14T01:25:13;101115.03;;;5.25;92.84
31717;BME280;18301;51.076;17.046;2022-11-14T01:30:14;101107.94;;;5.24;92.62
31717;BME280;18301;51.076;17.046;2022-11-14T01:35:16;101113.41;;;5.21;91.90
31717;BME280;18301;51.076;17.046;2022-11-14T01:40:18;101113.66;;;5.15;91.98
31717;BME280;18301;51.076;17.046;2022-11-14T01:50:49;101088.59;;;5.18;91.51
31717;BME280;18301;51.076;17.046;2022-11-14T01:55:57;101083.53;;;5.10;91.80
31717;BME280;18301;51.076;17.046;2022-11-14T02:00:59;101070.72;;;5.18;92.03
31717;BME280;18301;51.076;17.046;2022-11-14T02:06:01;101070.97;;;5.12;92.40
31717;BME280;18301;51.076;17.046;2022-11-14T02:11:03;101073.03;;;5.27;91.42
31717;BME280;18301;51.076;17.046;2022-11-14T02:16:05;101058.41;;;5.14;92.65
31717;BME280;18301;51.076;17.046;2022-11-14T02:21:07;101057.34;;;5.18;92.79
31717;BME280;18301;51.076;17.046;2022-11-14T02:26:08;101052.69;;;5.23;93.39
31717;BME280;18301;51.076;17.046;2022-11-14T02:31:10;101052.16;;;4.92;93.95
31717;BME280;18301;51.076;17.046;2022-11-14T02:36:11;101050.19;;;4.97;94.33
31717;BME280;18301;51.076;17.046;2022-11-14T02:41:13;101042.91;;;5.00;93.79
31717;BME280;18301;51.076;17.046;2022-11-14T02:46:14;101036.13;;;5.14;92.57
31717;BME280;18301;51.076;17.046;2022-11-14T02:51:17;101030.53;;;4.98;93.11
31717;BME280;18301;51.076;17.046;2022-11-14T02:56:18;101026.16;;;4.95;92.89
31717;BME280;18301;51.076;17.046;2022-11-14T03:01:20;101039.13;;;5.06;93.05
31717;BME280;18301;51.076;17.046;2022-11-14T03:06:22;101039.25;;;5.03;93.64
31717;BME280;18301;51.076;17.046;2022-11-14T03:11:23;101038.50;;;4.99;93.46
31717;BME280;18301;51.076;17.046;2022-11-14T03:16:25;101044.09;;;4.93;94.11
31717;BME280;18301;51.076;17.046;2022-11-14T03:21:26;101044.66;;;5.23;94.37
31717;BME280;18301;51.076;17.046;2022-11-14T03:26:28;101048.63;;;5.13;94.13
31717;BME280;18301;51.076;17.046;2022-11-14T03:31:29;101046.50;;;5.21;93.55
31717;BME280;18301;51.076;17.046;2022-11-14T03:36:32;101036.47;;;5.26;93.97
31717;BME280;18301;51.076;17.046;2022-11-14T03:41:34;101037.16;;;5.31;94.29
31717;BME280;18301;51.076;17.046;2022-11-14T03:46:35;101026.72;;;5.25;95.01
31717;BME280;18301;51.076;17.046;2022-11-14T03:51:37;101024.13;;;5.44;95.05
31717;BME280;18301;51.076;17.046;2022-11-14T03:56:38;101030.69;;;5.37;94.98
31717;BME280;18301;51.076;17.046;2022-11-14T04:01:40;101027.22;;;5.56;95.79
31717;BME280;18301;51.076;17.046;2022-11-14T04:06:41;101022.34;;;5.65;95.22
31717;BME280;18301;51.076;17.046;2022-11-14T04:11:43;101036.41;;;5.70;94.94
31717;BME280;18301;51.076;17.046;2022-11-14T04:16:44;101020.47;;;5.67;95.09
31717;BME280;18301;51.076;17.046;2022-11-14T04:21:46;101034.31;;;5.57;95.33
31717;BME280;18301;51.076;17.046;2022-11-14T04:26:47;101029.44;;;5.66;95.24
31717;BME280;18301;51.076;17.046;2022-11-14T04:31:49;101029.91;;;5.76;94.51
31717;BME280;18301;51.076;17.046;2022-11-14T04:36:57;101021.53;;;5.84;94.41
31717;BME280;18301;51.076;17.046;2022-11-14T04:41:59;101019.66;;;5.65;94.88
31717;BME280;18301;51.076;17.046;2022-11-14T04:47:00;101015.66;;;5.55;95.34
31717;BME280;18301;51.076;17.046;2022-11-14T04:52:02;101002.78;;;5.63;95.41
31717;BME280;18301;51.076;17.046;2022-11-14T04:57:04;100998.25;;;5.65;96.14
31717;BME280;18301;51.076;17.046;2022-11-14T05:02:05;100994.06;;;5.78;94.82
31717;BME280;18301;51.076;17.046;2022-11-14T05:07:07;100994.28;;;5.74;96.30
31717;BME280;18301;51.076;17.046;2022-11-14T05:12:08;101000.91;;;5.65;95.89
31717;BME280;18301;51.076;17.046;2022-11-14T05:17:09;100984.16;;;5.81;96.24
31717;BME280;18301;51.076;17.046;2022-11-14T05:22:11;100981.09;;;5.69;95.90
31717;BME280;18301;51.076;17.046;2022-11-14T05:27:12;100967.16;;;5.82;96.00
31717;BME280;18301;51.076;17.046;2022-11-14T05:32:15;100972.78;;;5.75;96.57
31717;BME280;18301;51.076;17.046;2022-11-14T05:37:16;100980.53;;;5.82;95.49
31717;BME280;18301;51.076;17.046;2022-11-14T05:42:18;100984.03;;;5.84;96.12
31717;BME280;18301;51.076;17.046;2022-11-14T05:47:19;100970.72;;;5.82;95.15
31717;BME280;18301;51.076;17.046;2022-11-14T05:52:21;100980.41;;;5.85;95.67
31717;BME280;18301;51.076;17.046;2022-11-14T05:57:22;100989.25;;;5.87;96.03
31717;BME280;18301;51.076;17.046;2022-11-14T06:02:24;101004.66;;;5.82;96.33
31717;BME280;18301;51.076;17.046;2022-11-14T06:07:25;101005.66;;;5.99;96.09
31717;BME280;18301;51.076;17.046;2022-11-14T06:12:27;101011.53;;;5.87;96.59
31717;BME280;18301;51.076;17.046;2022-11-14T06:17:28;101015.09;;;5.88;96.08
31717;BME280;18301;51.076;17.046;2022-11-14T06:22:30;101014.16;;;5.89;96.10
31717;BME280;18301;51.076;17.046;2022-11-14T06:27:31;100999.25;;;5.83;96.23
31717;BME280;18301;51.076;17.046;2022-11-14T06:32:32;101003.47;;;5.89;96.01
31717;BME280;18301;51.076;17.046;2022-11-14T06:37:35;101001.47;;;5.73;96.89
31717;BME280;18301;51.076;17.046;2022-11-14T06:42:37;101009.50;;;5.73;96.56
31717;BME280;18301;51.076;17.046;2022-11-14T06:47:38;101009.00;;;5.84;96.24
31717;BME280;18301;51.076;17.046;2022-11-14T06:52:40;100998.25;;;5.86;97.02
31717;BME280;18301;51.076;17.046;2022-11-14T06:57:42;100999.72;;;5.93;96.53
31717;BME280;18301;51.076;17.046;2022-11-14T07:02:47;100998.09;;;5.89;96.44
31717;BME280;18301;51.076;17.046;2022-11-14T07:07:49;100989.41;;;6.04;96.36
31717;BME280;18301;51.076;17.046;2022-11-14T07:12:50;100983.81;;;6.09;96.79
31717;BME280;18301;51.076;17.046;2022-11-14T07:17:52;100981.66;;;6.17;95.53
31717;BME280;18301;51.076;17.046;2022-11-14T07:22:53;100976.66;;;6.09;96.21
31717;BME280;18301;51.076;17.046;2022-11-14T07:27:56;100960.53;;;6.30;95.34
31717;BME280;18301;51.076;17.046;2022-11-14T07:32:57;100965.78;;;6.12;96.35
31717;BME280;18301;51.076;17.046;2022-11-14T07:38:00;100965.22;;;6.25;95.83
31717;BME280;18301;51.076;17.046;2022-11-14T07:43:02;100952.47;;;6.11;96.84
31717;BME280;18301;51.076;17.046;2022-11-14T07:48:04;100953.56;;;6.26;96.50
31717;BME280;18301;51.076;17.046;2022-11-14T07:53:06;100954.56;;;6.42;96.71
31717;BME280;18301;51.076;17.046;2022-11-14T07:58:07;100957.34;;;6.59;96.57
31717;BME280;18301;51.076;17.046;2022-11-14T08:03:09;100958.06;;;6.44;96.25
31717;BME280;18301;51.076;17.046;2022-11-14T08:08:11;100961.97;;;6.37;96.94
31717;BME280;18301;51.076;17.046;2022-11-14T08:13:12;100956.31;;;6.43;96.35
31717;BME280;18301;51.076;17.046;2022-11-14T08:18:34;100942.19;;;6.39;95.26
31717;BME280;18301;51.076;17.046;2022-11-14T08:23:35;100931.41;;;6.41;95.86
31717;BME280;18301;51.076;17.046;2022-11-14T08:28:37;100924.41;;;6.56;96.10
31717;BME280;18301;51.076;17.046;2022-11-14T08:33:38;100925.34;;;6.55;96.61
31717;BME280;18301;51.076;17.046;2022-11-14T08:38:39;100924.69;;;6.68;96.18
31717;BME280;18301;51.076;17.046;2022-11-14T08:43:41;100925.00;;;6.62;96.19
31717;BME280;18301;51.076;17.046;2022-11-14T08:48:42;100913.69;;;6.56;96.40
31717;BME280;18301;51.076;17.046;2022-11-14T08:53:44;100908.59;;;6.68;95.99
31717;BME280;18301;51.076;17.046;2022-11-14T08:58:45;100912.16;;;6.69;96.40
31717;BME280;18301;51.076;17.046;2022-11-14T09:03:47;100909.72;;;6.82;95.98
31717;BME280;18301;51.076;17.046;2022-11-14T09:08:48;100913.22;;;6.84;95.64
31717;BME280;18301;51.076;17.046;2022-11-14T09:13:50;100914.53;;;6.75;95.40
31717;BME280;18301;51.076;17.046;2022-11-14T09:18:51;100904.25;;;6.66;95.15
31717;BME280;18301;51.076;17.046;2022-11-14T09:23:53;100901.88;;;6.77;95.01
31717;BME280;18301;51.076;17.046;2022-11-14T09:29:01;100890.59;;;6.71;95.89
31717;BME280;18301;51.076;17.046;2022-11-14T09:34:03;100870.91;;;6.89;96.21
31717;BME280;18301;51.076;17.046;2022-11-14T09:39:04;100873.03;;;6.82;96.95
31717;BME280;18301;51.076;17.046;2022-11-14T09:44:27;100877.78;;;6.95;96.14
31717;BME280;18301;51.076;17.046;2022-11-14T09:49:43;100875.88;;;6.97;96.78
31717;BME280;18301;51.076;17.046;2022-11-14T09:54:51;100887.06;;;7.22;95.44
31717;BME280;18301;51.076;17.046;2022-11-14T09:59:54;100882.72;;;7.20;95.64
31717;BME280;18301;51.076;17.046;2022-11-14T10:20:57;100857.94;;;7.65;94.59
31717;BME280;18301;51.076;17.046;2022-11-14T10:26:17;100843.31;;;7.71;95.43
31717;BME280;18301;51.076;17.046;2022-11-14T10:31:52;100840.28;;;7.77;94.94
31717;BME280;18301;51.076;17.046;2022-11-14T10:37:18;100842.72;;;7.81;93.92
31717;BME280;18301;51.076;17.046;2022-11-14T10:42:35;100840.63;;;7.71;95.39
31717;BME280;18301;51.076;17.046;2022-11-14T10:47:40;100833.97;;;7.78;94.51
31717;BME280;18301;51.076;17.046;2022-11-14T10:52:44;100823.84;;;7.99;93.33
31717;BME280;18301;51.076;17.046;2022-11-14T10:57:47;100812.56;;;7.92;94.84
31717;BME280;18301;51.076;17.046;2022-11-14T11:02:53;100809.38;;;8.01;94.56
31717;BME280;18301;51.076;17.046;2022-11-14T11:07:58;100812.56;;;8.24;93.72
31717;BME280;18301;51.076;17.046;2022-11-14T11:13:50;100801.25;;;8.33;93.08
31717;BME280;18301;51.076;17.046;2022-11-14T11:19:12;100793.38;;;8.46;93.33
31717;BME280;18301;51.076;17.046;2022-11-14T11:24:30;100795.03;;;8.48;93.89
31717;BME280;18301;51.076;17.046;2022-11-14T11:29:32;100786.81;;;8.66;93.06
31717;BME280;18301;51.076;17.046;2022-11-14T11:34:33;100782.16;;;8.84;92.27
31717;BME280;18301;51.076;17.046;2022-11-14T11:39:40;100768.56;;;9.15;92.62
31717;BME280;18301;51.076;17.046;2022-11-14T11:44:47;100752.88;;;9.36;91.79
31717;BME280;18301;51.076;17.046;2022-11-14T11:49:51;100749.28;;;9.64;91.37
31717;BME280;18301;51.076;17.046;2022-11-14T11:55:15;100737.97;;;9.86;90.85
31717;BME280;18301;51.076;17.046;2022-11-14T12:00:19;100742.22;;;10.18;90.59
31717;BME280;18301;51.076;17.046;2022-11-14T12:10:58;100741.63;;;10.27;88.50
31717;BME280;18301;51.076;17.046;2022-11-14T12:16:08;100726.38;;;10.26;89.00
31717;BME280;18301;51.076;17.046;2022-11-14T12:26:56;100710.47;;;10.35;89.04
31717;BME280;18301;51.076;17.046;2022-11-14T12:32:06;100718.16;;;10.42;88.79
31717;BME280;18301;51.076;17.046;2022-11-14T12:37:14;100711.91;;;10.54;88.22
31717;BME280;18301;51.076;17.046;2022-11-14T12:42:20;100713.97;;;10.63;87.86
31717;BME280;18301;51.076;17.046;2022-11-14T12:47:27;100704.97;;;10.50;87.87
31717;BME280;18301;51.076;17.046;2022-11-14T12:52:51;100702.75;;;10.69;87.79
31717;BME280;18301;51.076;17.046;2022-11-14T12:58:22;100707.38;;;10.67;88.13
31717;BME280;18301;51.076;17.046;2022-11-14T13:14:29;100677.59;;;10.81;87.22
31717;BME280;18301;51.076;17.046;2022-11-14T13:19:50;100664.41;;;10.90;86.98
31717;BME280;18301;51.076;17.046;2022-11-14T13:30:11;100665.16;;;10.92;87.11
31717;BME280;18301;51.076;17.046;2022-11-14T13:35:44;100655.13;;;10.94;86.83
31717;BME280;18301;51.076;17.046;2022-11-14T13:41:13;100644.78;;;10.88;87.15
31717;BME280;18301;51.076;17.046;2022-11-14T13:46:43;100646.28;;;10.92;87.08
31717;BME280;18301;51.076;17.046;2022-11-14T13:51:51;100640.00;;;10.91;87.02
31717;BME280;18301;51.076;17.046;2022-11-14T14:02:37;100632.66;;;10.80;87.87
31717;BME280;18301;51.076;17.046;2022-11-14T14:08:01;100622.31;;;10.74;87.37
31717;BME280;18301;51.076;17.046;2022-11-14T14:23:30;100613.25;;;10.63;87.80
31717;BME280;18301;51.076;17.046;2022-11-14T14:33:41;100596.63;;;10.43;88.77
31717;BME280;18301;51.076;17.046;2022-11-14T14:38:43;100601.59;;;10.36;88.70
31717;BME280;18301;51.076;17.046;2022-11-14T14:43:51;100597.47;;;10.31;89.19
31717;BME280;18301;51.076;17.046;2022-11-14T14:48:54;100602.31;;;10.26;89.24
31717;BME280;18301;51.076;17.046;2022-11-14T14:53:57;100601.13;;;10.17;89.06
31717;BME280;18301;51.076;17.046;2022-11-14T14:59:14;100600.25;;;10.17;89.84
31717;BME280;18301;51.076;17.046;2022-11-14T15:04:17;100598.50;;;10.03;89.81
31717;BME280;18301;51.076;17.046;2022-11-14T15:09:23;100593.72;;;9.94;90.13
31717;BME280;18301;51.076;17.046;2022-11-14T15:14:28;100591.38;;;10.02;90.41
31717;BME280;18301;51.076;17.046;2022-11-14T15:19:41;100580.16;;;9.95;90.28
31717;BME280;18301;51.076;17.046;2022-11-14T15:25:05;100572.38;;;9.90;90.35
31717;BME280;18301;51.076;17.046;2022-11-14T15:30:22;100583.25;;;9.76;90.71
31717;BME280;18301;51.076;17.046;2022-11-14T15:35:27;100573.38;;;9.62;90.73
31717;BME280;18301;51.076;17.046;2022-11-14T15:40:31;100572.72;;;9.59;91.38
31717;BME280;18301;51.076;17.046;2022-11-14T15:45:39;100572.38;;;9.51;91.22
31717;BME280;18301;51.076;17.046;2022-11-14T15:50:41;100562.19;;;9.41;91.89
31717;BME280;18301;51.076;17.046;2022-11-14T15:55:43;100553.38;;;9.39;91.67
31717;BME280;18301;51.076;17.046;2022-11-14T16:00:49;100544.97;;;9.44;91.69
31717;BME280;18301;51.076;17.046;2022-11-14T16:05:52;100553.56;;;9.36;92.02
31717;BME280;18301;51.076;17.046;2022-11-14T16:10:54;100548.03;;;9.25;92.20
31717;BME280;18301;51.076;17.046;2022-11-14T16:15:55;100541.13;;;9.21;92.50
31717;BME280;18301;51.076;17.046;2022-11-14T16:20:56;100544.97;;;9.17;92.45
31717;BME280;18301;51.076;17.046;2022-11-14T16:25:59;100544.44;;;9.12;92.28
31717;BME280;18301;51.076;17.046;2022-11-14T16:31:01;100544.81;;;9.06;92.04
31717;BME280;18301;51.076;17.046;2022-11-14T16:36:03;100545.97;;;9.02;92.40
31717;BME280;18301;51.076;17.046;2022-11-14T16:41:08;100539.63;;;9.03;92.66
31717;BME280;18301;51.076;17.046;2022-11-14T16:46:10;100536.63;;;9.07;92.36
31717;BME280;18301;51.076;17.046;2022-11-14T16:51:11;100535.06;;;8.90;93.40
31717;BME280;18301;51.076;17.046;2022-11-14T16:56:33;100531.59;;;8.74;93.62
31717;BME280;18301;51.076;17.046;2022-11-14T17:01:35;100526.81;;;8.65;93.69
31717;BME280;18301;51.076;17.046;2022-11-14T17:06:37;100537.56;;;8.65;93.14
31717;BME280;18301;51.076;17.046;2022-11-14T17:11:38;100527.59;;;8.67;93.53
31717;BME280;18301;51.076;17.046;2022-11-14T17:16:40;100533.75;;;8.69;93.24
31717;BME280;18301;51.076;17.046;2022-11-14T17:21:42;100539.50;;;8.63;92.89
31717;BME280;18301;51.076;17.046;2022-11-14T17:26:44;100532.78;;;8.56;92.35
31717;BME280;18301;51.076;17.046;2022-11-14T17:31:45;100529.53;;;8.50;92.63
31717;BME280;18301;51.076;17.046;2022-11-14T17:36:47;100538.06;;;8.43;92.42
31717;BME280;18301;51.076;17.046;2022-11-14T17:41:49;100529.34;;;8.39;92.41
31717;BME280;18301;51.076;17.046;2022-11-14T17:46:50;100517.94;;;8.34;92.74
31717;BME280;18301;51.076;17.046;2022-11-14T17:51:54;100526.31;;;8.29;92.06
31717;BME280;18301;51.076;17.046;2022-11-14T17:56:55;100519.91;;;8.32;92.15
31717;BME280;18301;51.076;17.046;2022-11-14T18:01:58;100532.19;;;8.36;92.04
31717;BME280;18301;51.076;17.046;2022-11-14T18:07:00;100528.91;;;8.31;91.72
31717;BME280;18301;51.076;17.046;2022-11-14T18:12:02;100531.41;;;8.34;91.45
31717;BME280;18301;51.076;17.046;2022-11-14T18:17:03;100525.66;;;8.26;91.08
31717;BME280;18301;51.076;17.046;2022-11-14T18:22:13;100526.59;;;8.25;91.00
31717;BME280;18301;51.076;17.046;2022-11-14T18:27:14;100527.75;;;8.21;90.73
31717;BME280;18301;51.076;17.046;2022-11-14T18:32:16;100515.66;;;8.14;90.79
31717;BME280;18301;51.076;17.046;2022-11-14T18:37:18;100512.38;;;8.08;90.99
31717;BME280;18301;51.076;17.046;2022-11-14T18:42:19;100502.19;;;7.99;91.30
31717;BME280;18301;51.076;17.046;2022-11-14T18:47:21;100516.13;;;7.92;91.38
31717;BME280;18301;51.076;17.046;2022-11-14T18:52:22;100504.66;;;7.88;91.32
31717;BME280;18301;51.076;17.046;2022-11-14T18:57:23;100493.06;;;7.73;92.16
31717;BME280;18301;51.076;17.046;2022-11-14T19:02:25;100486.59;;;7.61;92.05
31717;BME280;18301;51.076;17.046;2022-11-14T19:07:26;100497.72;;;7.55;92.46
31717;BME280;18301;51.076;17.046;2022-11-14T19:12:29;100487.16;;;7.52;92.59
31717;BME280;18301;51.076;17.046;2022-11-14T19:17:31;100486.41;;;7.65;92.30
31717;BME280;18301;51.076;17.046;2022-11-14T19:22:32;100493.50;;;7.66;92.46
31717;BME280;18301;51.076;17.046;2022-11-14T19:27:34;100482.19;;;7.60;92.14
31717;BME280;18301;51.076;17.046;2022-11-14T19:32:35;100477.28;;;7.53;92.47
31717;BME280;18301;51.076;17.046;2022-11-14T19:37:37;100486.16;;;7.39;92.57
31717;BME280;18301;51.076;17.046;2022-11-14T19:42:38;100474.91;;;7.32;92.63
31717;BME280;18301;51.076;17.046;2022-11-14T19:47:39;100462.91;;;7.24;92.87
31717;BME280;18301;51.076;17.046;2022-11-14T19:52:41;100462.66;;;7.12;93.33
31717;BME280;18301;51.076;17.046;2022-11-14T19:57:43;100453.66;;;7.13;93.56
31717;BME280;18301;51.076;17.046;2022-11-14T20:02:45;100462.31;;;7.19;93.48
31717;BME280;18301;51.076;17.046;2022-11-14T20:07:47;100461.69;;;7.13;93.37
31717;BME280;18301;51.076;17.046;2022-11-14T20:12:48;100456.16;;;7.17;93.48
31717;BME280;18301;51.076;17.046;2022-11-14T20:17:50;100439.72;;;7.07;92.69
31717;BME280;18301;51.076;17.046;2022-11-14T20:22:51;100435.53;;;6.87;93.44
31717;BME280;18301;51.076;17.046;2022-11-14T20:27:52;100439.44;;;6.81;94.35
31717;BME280;18301;51.076;17.046;2022-11-14T20:32:54;100448.34;;;6.82;94.25
31717;BME280;18301;51.076;17.046;2022-11-14T20:37:55;100435.78;;;6.82;94.44
31717;BME280;18301;51.076;17.046;2022-11-14T20:43:04;100433.78;;;6.86;94.49
31717;BME280;18301;51.076;17.046;2022-11-14T20:48:07;100438.03;;;6.90;94.61
31717;BME280;18301;51.076;17.046;2022-11-14T20:53:08;100433.88;;;7.00;94.22
31717;BME280;18301;51.076;17.046;2022-11-14T20:58:10;100429.28;;;7.02;93.66
31717;BME280;18301;51.076;17.046;2022-11-14T21:03:11;100434.66;;;7.02;93.50
31717;BME280;18301;51.076;17.046;2022-11-14T21:08:13;100427.34;;;7.04;93.13
31717;BME280;18301;51.076;17.046;2022-11-14T21:13:20;100440.34;;;7.12;92.93
31717;BME280;18301;51.076;17.046;2022-11-14T21:18:41;100438.75;;;7.08;92.64
31717;BME280;18301;51.076;17.046;2022-11-14T21:23:49;100434.47;;;7.05;92.51
31717;BME280;18301;51.076;17.046;2022-11-14T21:28:56;100437.75;;;6.95;92.11
31717;BME280;18301;51.076;17.046;2022-11-14T21:34:04;100433.97;;;6.83;92.46
31717;BME280;18301;51.076;17.046;2022-11-14T21:39:06;100432.25;;;6.82;92.63
31717;BME280;18301;51.076;17.046;2022-11-14T21:44:10;100433.03;;;6.84;92.45
31717;BME280;18301;51.076;17.046;2022-11-14T21:49:13;100429.38;;;6.85;92.63
31717;BME280;18301;51.076;17.046;2022-11-14T21:54:14;100423.41;;;6.80;92.89
31717;BME280;18301;51.076;17.046;2022-11-14T21:59:16;100424.66;;;6.58;92.39
31717;BME280;18301;51.076;17.046;2022-11-14T22:04:22;100427.09;;;6.47;93.17
31717;BME280;18301;51.076;17.046;2022-11-14T22:09:25;100418.25;;;6.45;93.30
31717;BME280;18301;51.076;17.046;2022-11-14T22:14:28;100426.22;;;6.47;92.94
31717;BME280;18301;51.076;17.046;2022-11-14T22:19:29;100420.84;;;6.31;93.55
31717;BME280;18301;51.076;17.046;2022-11-14T22:24:31;100427.59;;;6.38;93.35
31717;BME280;18301;51.076;17.046;2022-11-14T22:29:33;100414.97;;;6.40;93.11
31717;BME280;18301;51.076;17.046;2022-11-14T22:34:34;100427.78;;;6.35;92.57
31717;BME280;18301;51.076;17.046;2022-11-14T22:39:36;100421.72;;;6.31;92.33
31717;BME280;18301;51.076;17.046;2022-11-14T22:44:37;100407.03;;;6.22;92.51
31717;BME280;18301;51.076;17.046;2022-11-14T22:49:38;100409.59;;;6.24;92.43
31717;BME280;18301;51.076;17.046;2022-11-14T22:54:40;100405.63;;;6.15;93.25
31717;BME280;18301;51.076;17.046;2022-11-14T22:59:42;100399.91;;;6.06;93.46
31717;BME280;18301;51.076;17.046;2022-11-14T23:04:43;100409.69;;;6.07;93.65
31717;BME280;18301;51.076;17.046;2022-11-14T23:09:45;100395.56;;;6.03;94.05
31717;BME280;18301;51.076;17.046;2022-11-14T23:14:46;100388.44;;;6.04;93.41
31717;BME280;18301;51.076;17.046;2022-11-14T23:19:48;100390.84;;;5.91;93.85
31717;BME280;18301;51.076;17.046;2022-11-14T23:24:49;100381.88;;;5.92;94.00
31717;BME280;18301;51.076;17.046;2022-11-14T23:29:51;100387.13;;;5.95;93.67
31717;BME280;18301;51.076;17.046;2022-11-14T23:34:52;100382.69;;;5.94;93.46
31717;BME280;18301;51.076;17.046;2022-11-14T23:39:53;100377.63;;;5.88;93.94
31717;BME280;18301;51.076;17.046;2022-11-14T23:44:55;100361.81;;;5.67;93.90
31717;BME280;18301;51.076;17.046;2022-11-14T23:49:56;100355.19;;;5.57;94.18
31717;BME280;18301;51.076;17.046;2022-11-14T23:54:58;100353.66;;;5.53;94.67
